sensor_id;sensor_type;location;lat;lon;timestamp;temperature;humidity
4739;DHT22;2383;48.632;10.156;2023-02-01T00:03:14;1.40;99.20
4739;DHT22;2383;48.632;10.156;2023-02-01T00:07:16;1.80;99.30
4739;DHT22;2383;48.632;10.156;2023-02-01T00:11:18;2.20;98.80
4739;DHT22;2383;48.632;10.156;2023-02-01T00:15:20;2.30;98.60
4739;DHT22;2383;48.632;10.156;2023-02-01T00:19:22;2.50;98.60
4739;DHT22;2383;48.632;10.156;2023-02-01T00:23:24;2.40;98.30
4739;DHT22;2383;48.632;10.156;2023-02-01T00:27:26;2.30;98.60
4739;DHT22;2383;48.632;10.156;2023-02-01T00:31:28;2.70;98.50
4739;DHT22;2383;48.632;10.156;2023-02-01T00:35:30;2.70;98.10
4739;DHT22;2383;48.632;10.156;2023-02-01T00:39:33;3.00;97.90
4739;DHT22;2383;48.632;10.156;2023-02-01T00:43:35;2.70;98.20
4739;DHT22;2383;48.632;10.156;2023-02-01T00:47:37;2.90;98.10
4739;DHT22;2383;48.632;10.156;2023-02-01T00:51:39;2.90;98.10
4739;DHT22;2383;48.632;10.156;2023-02-01T00:55:45;2.70;98.40
4739;DHT22;2383;48.632;10.156;2023-02-01T00:59:47;2.90;98.30
4739;DHT22;2383;48.632;10.156;2023-02-01T01:03:52;3.20;97.90
4739;DHT22;2383;48.632;10.156;2023-02-01T01:07:55;3.20;97.90
4739;DHT22;2383;48.632;10.156;2023-02-01T01:11:57;3.40;98.10
4739;DHT22;2383;48.632;10.156;2023-02-01T01:16:07;3.50;97.60
4739;DHT22;2383;48.632;10.156;2023-02-01T01:20:09;3.30;97.70
4739;DHT22;2383;48.632;10.156;2023-02-01T01:24:12;3.00;97.90
4739;DHT22;2383;48.632;10.156;2023-02-01T01:28:14;2.80;97.90
4739;DHT22;2383;48.632;10.156;2023-02-01T01:32:16;2.70;98.20
4739;DHT22;2383;48.632;10.156;2023-02-01T01:36:18;2.30;98.70
4739;DHT22;2383;48.632;10.156;2023-02-01T01:40:20;2.40;98.80
4739;DHT22;2383;48.632;10.156;2023-02-01T01:49:07;2.70;98.60
4739;DHT22;2383;48.632;10.156;2023-02-01T01:53:12;2.80;98.30
4739;DHT22;2383;48.632;10.156;2023-02-01T01:57:29;2.90;98.00
4739;DHT22;2383;48.632;10.156;2023-02-01T02:01:33;3.10;97.90
4739;DHT22;2383;48.632;10.156;2023-02-01T02:05:35;3.40;97.80
4739;DHT22;2383;48.632;10.156;2023-02-01T02:09:37;3.40;97.60
4739;DHT22;2383;48.632;10.156;2023-02-01T02:13:48;3.60;97.40
4739;DHT22;2383;48.632;10.156;2023-02-01T02:18:19;3.30;97.50
4739;DHT22;2383;48.632;10.156;2023-02-01T02:22:31;3.30;97.70
4739;DHT22;2383;48.632;10.156;2023-02-01T02:27:00;3.20;97.50
4739;DHT22;2383;48.632;10.156;2023-02-01T02:35:47;2.70;97.80
4739;DHT22;2383;48.632;10.156;2023-02-01T02:40:03;2.60;97.60
4739;DHT22;2383;48.632;10.156;2023-02-01T02:53:19;2.70;97.40
4739;DHT22;2383;48.632;10.156;2023-02-01T02:57:44;2.70;97.30
4739;DHT22;2383;48.632;10.156;2023-02-01T03:02:06;2.90;97.30
4739;DHT22;2383;48.632;10.156;2023-02-01T03:06:27;3.40;96.90
4739;DHT22;2383;48.632;10.156;2023-02-01T03:10:45;2.80;97.20
4739;DHT22;2383;48.632;10.156;2023-02-01T03:14:53;2.60;97.50
4739;DHT22;2383;48.632;10.156;2023-02-01T03:19:07;2.80;97.40
4739;DHT22;2383;48.632;10.156;2023-02-01T03:23:12;3.10;97.10
4739;DHT22;2383;48.632;10.156;2023-02-01T03:31:27;3.40;96.20
4739;DHT22;2383;48.632;10.156;2023-02-01T03:40:07;3.30;96.10
4739;DHT22;2383;48.632;10.156;2023-02-01T03:44:17;3.20;96.40
4739;DHT22;2383;48.632;10.156;2023-02-01T03:48:22;3.40;96.20
4739;DHT22;2383;48.632;10.156;2023-02-01T03:52:29;3.10;96.50
4739;DHT22;2383;48.632;10.156;2023-02-01T03:56:36;3.30;96.40
4739;DHT22;2383;48.632;10.156;2023-02-01T04:00:40;3.00;96.70
4739;DHT22;2383;48.632;10.156;2023-02-01T04:04:42;2.70;97.00
4739;DHT22;2383;48.632;10.156;2023-02-01T04:08:45;2.60;97.40
4739;DHT22;2383;48.632;10.156;2023-02-01T04:12:47;2.50;97.40
4739;DHT22;2383;48.632;10.156;2023-02-01T04:16:49;2.40;97.60
4739;DHT22;2383;48.632;10.156;2023-02-01T04:20:51;2.50;97.50
4739;DHT22;2383;48.632;10.156;2023-02-01T04:24:53;2.40;97.80
4739;DHT22;2383;48.632;10.156;2023-02-01T04:28:55;2.80;97.60
4739;DHT22;2383;48.632;10.156;2023-02-01T04:32:57;2.40;97.60
4739;DHT22;2383;48.632;10.156;2023-02-01T04:36:59;2.70;97.80
4739;DHT22;2383;48.632;10.156;2023-02-01T04:41:01;2.60;98.00
4739;DHT22;2383;48.632;10.156;2023-02-01T04:45:03;2.60;97.70
4739;DHT22;2383;48.632;10.156;2023-02-01T04:49:05;2.60;98.10
4739;DHT22;2383;48.632;10.156;2023-02-01T04:53:07;2.80;97.50
4739;DHT22;2383;48.632;10.156;2023-02-01T04:57:09;2.80;97.70
4739;DHT22;2383;48.632;10.156;2023-02-01T05:01:11;2.90;97.40
4739;DHT22;2383;48.632;10.156;2023-02-01T05:05:13;2.80;97.50
4739;DHT22;2383;48.632;10.156;2023-02-01T05:09:15;3.00;97.50
4739;DHT22;2383;48.632;10.156;2023-02-01T05:13:17;3.20;97.30
4739;DHT22;2383;48.632;10.156;2023-02-01T05:17:37;3.30;97.30
4739;DHT22;2383;48.632;10.156;2023-02-01T05:21:41;3.10;96.90
4739;DHT22;2383;48.632;10.156;2023-02-01T05:25:43;2.60;97.50
4739;DHT22;2383;48.632;10.156;2023-02-01T05:29:45;2.50;97.60
4739;DHT22;2383;48.632;10.156;2023-02-01T05:33:47;3.00;97.40
4739;DHT22;2383;48.632;10.156;2023-02-01T05:37:49;2.70;97.20
4739;DHT22;2383;48.632;10.156;2023-02-01T05:41:51;3.20;96.90
4739;DHT22;2383;48.632;10.156;2023-02-01T05:45:53;3.50;96.60
4739;DHT22;2383;48.632;10.156;2023-02-01T05:49:55;3.40;96.70
4739;DHT22;2383;48.632;10.156;2023-02-01T05:53:57;3.20;96.90
4739;DHT22;2383;48.632;10.156;2023-02-01T05:57:59;3.30;96.70
4739;DHT22;2383;48.632;10.156;2023-02-01T06:02:01;3.30;96.80
4739;DHT22;2383;48.632;10.156;2023-02-01T06:06:03;3.10;96.90
4739;DHT22;2383;48.632;10.156;2023-02-01T06:10:06;3.30;96.80
4739;DHT22;2383;48.632;10.156;2023-02-01T06:14:08;3.00;96.80
4739;DHT22;2383;48.632;10.156;2023-02-01T06:18:10;3.00;96.90
4739;DHT22;2383;48.632;10.156;2023-02-01T06:22:12;3.30;96.70
4739;DHT22;2383;48.632;10.156;2023-02-01T06:26:14;3.40;96.60
4739;DHT22;2383;48.632;10.156;2023-02-01T06:30:16;3.00;96.30
4739;DHT22;2383;48.632;10.156;2023-02-01T06:34:20;2.80;96.60
4739;DHT22;2383;48.632;10.156;2023-02-01T06:38:24;3.10;96.70
4739;DHT22;2383;48.632;10.156;2023-02-01T06:42:27;3.20;96.70
4739;DHT22;2383;48.632;10.156;2023-02-01T06:46:29;3.40;95.90
4739;DHT22;2383;48.632;10.156;2023-02-01T06:50:31;3.50;96.10
4739;DHT22;2383;48.632;10.156;2023-02-01T06:54:33;3.10;96.10
4739;DHT22;2383;48.632;10.156;2023-02-01T06:58:35;3.40;96.20
4739;DHT22;2383;48.632;10.156;2023-02-01T07:02:39;3.60;95.70
4739;DHT22;2383;48.632;10.156;2023-02-01T07:06:41;3.90;95.50
4739;DHT22;2383;48.632;10.156;2023-02-01T07:10:43;3.70;95.50
4739;DHT22;2383;48.632;10.156;2023-02-01T07:14:44;3.60;95.30
4739;DHT22;2383;48.632;10.156;2023-02-01T07:18:47;3.60;95.40
4739;DHT22;2383;48.632;10.156;2023-02-01T07:22:54;3.50;95.90
4739;DHT22;2383;48.632;10.156;2023-02-01T07:26:56;3.30;95.90
4739;DHT22;2383;48.632;10.156;2023-02-01T07:31:06;3.60;95.90
4739;DHT22;2383;48.632;10.156;2023-02-01T07:35:09;3.40;95.80
4739;DHT22;2383;48.632;10.156;2023-02-01T07:39:11;3.50;95.50
4739;DHT22;2383;48.632;10.156;2023-02-01T07:43:13;3.60;95.60
4739;DHT22;2383;48.632;10.156;2023-02-01T07:47:15;3.70;95.50
4739;DHT22;2383;48.632;10.156;2023-02-01T07:51:17;3.90;95.30
4739;DHT22;2383;48.632;10.156;2023-02-01T07:55:20;3.60;95.90
4739;DHT22;2383;48.632;10.156;2023-02-01T07:59:22;3.60;95.70
4739;DHT22;2383;48.632;10.156;2023-02-01T08:03:24;3.60;95.10
4739;DHT22;2383;48.632;10.156;2023-02-01T08:07:26;3.10;95.40
4739;DHT22;2383;48.632;10.156;2023-02-01T08:11:28;2.80;95.60
4739;DHT22;2383;48.632;10.156;2023-02-01T08:15:30;2.90;95.60
4739;DHT22;2383;48.632;10.156;2023-02-01T08:19:32;2.90;95.20
4739;DHT22;2383;48.632;10.156;2023-02-01T08:23:35;2.80;95.00
4739;DHT22;2383;48.632;10.156;2023-02-01T08:27:37;3.40;95.00
4739;DHT22;2383;48.632;10.156;2023-02-01T08:31:39;2.70;95.00
4739;DHT22;2383;48.632;10.156;2023-02-01T08:35:45;2.60;95.40
4739;DHT22;2383;48.632;10.156;2023-02-01T08:39:47;3.10;95.10
4739;DHT22;2383;48.632;10.156;2023-02-01T08:43:52;3.20;94.60
4739;DHT22;2383;48.632;10.156;2023-02-01T08:47:56;3.20;94.50
4739;DHT22;2383;48.632;10.156;2023-02-01T08:51:58;2.80;95.40
4739;DHT22;2383;48.632;10.156;2023-02-01T08:56:08;3.40;94.70
4739;DHT22;2383;48.632;10.156;2023-02-01T09:00:14;3.50;94.20
4739;DHT22;2383;48.632;10.156;2023-02-01T09:04:17;3.10;94.40
4739;DHT22;2383;48.632;10.156;2023-02-01T09:08:19;3.40;94.30
4739;DHT22;2383;48.632;10.156;2023-02-01T09:12:22;3.00;94.60
4739;DHT22;2383;48.632;10.156;2023-02-01T09:16:24;3.30;94.50
4739;DHT22;2383;48.632;10.156;2023-02-01T09:20:26;3.30;94.40
4739;DHT22;2383;48.632;10.156;2023-02-01T09:24:28;3.60;94.10
4739;DHT22;2383;48.632;10.156;2023-02-01T09:28:31;3.80;93.90
4739;DHT22;2383;48.632;10.156;2023-02-01T09:32:33;3.30;94.50
4739;DHT22;2383;48.632;10.156;2023-02-01T09:36:35;3.40;94.10
4739;DHT22;2383;48.632;10.156;2023-02-01T09:40:42;3.20;94.00
4739;DHT22;2383;48.632;10.156;2023-02-01T09:45:51;3.60;94.40
4739;DHT22;2383;48.632;10.156;2023-02-01T09:49:34;3.10;93.90
4739;DHT22;2383;48.632;10.156;2023-02-01T09:53:41;3.30;94.50
4739;DHT22;2383;48.632;10.156;2023-02-01T10:01:53;4.20;92.90
4739;DHT22;2383;48.632;10.156;2023-02-01T10:10:40;3.40;93.60
4739;DHT22;2383;48.632;10.156;2023-02-01T10:19:27;3.50;93.90
4739;DHT22;2383;48.632;10.156;2023-02-01T10:23:37;3.80;93.30
4739;DHT22;2383;48.632;10.156;2023-02-01T10:27:41;3.70;93.70
4739;DHT22;2383;48.632;10.156;2023-02-01T10:31:44;3.90;93.40
4739;DHT22;2383;48.632;10.156;2023-02-01T10:35:46;4.10;93.10
4739;DHT22;2383;48.632;10.156;2023-02-01T10:39:54;3.20;94.50
4739;DHT22;2383;48.632;10.156;2023-02-01T10:43:58;2.70;94.20
4739;DHT22;2383;48.632;10.156;2023-02-01T10:48:02;2.30;94.60
4739;DHT22;2383;48.632;10.156;2023-02-01T10:56:31;2.70;94.80
4739;DHT22;2383;48.632;10.156;2023-02-01T11:00:43;2.90;94.60
4739;DHT22;2383;48.632;10.156;2023-02-01T11:04:46;3.20;94.30
4739;DHT22;2383;48.632;10.156;2023-02-01T11:08:53;3.40;93.70
4739;DHT22;2383;48.632;10.156;2023-02-01T11:12:56;2.50;94.50
4739;DHT22;2383;48.632;10.156;2023-02-01T11:17:01;2.90;94.10
4739;DHT22;2383;48.632;10.156;2023-02-01T11:21:05;3.30;93.80
4739;DHT22;2383;48.632;10.156;2023-02-01T11:25:09;3.70;93.40
4739;DHT22;2383;48.632;10.156;2023-02-01T11:29:15;3.20;93.50
4739;DHT22;2383;48.632;10.156;2023-02-01T11:33:21;2.80;93.50
4739;DHT22;2383;48.632;10.156;2023-02-01T11:37:38;2.90;93.50
4739;DHT22;2383;48.632;10.156;2023-02-01T11:41:56;2.80;93.50
4739;DHT22;2383;48.632;10.156;2023-02-01T11:46:01;3.20;93.80
4739;DHT22;2383;48.632;10.156;2023-02-01T11:50:13;3.30;93.60
4739;DHT22;2383;48.632;10.156;2023-02-01T11:54:45;3.60;92.80
4739;DHT22;2383;48.632;10.156;2023-02-01T12:42:16;4.00;91.50
4739;DHT22;2383;48.632;10.156;2023-02-01T12:50:32;3.50;92.20
4739;DHT22;2383;48.632;10.156;2023-02-01T12:54:50;3.50;92.30
4739;DHT22;2383;48.632;10.156;2023-02-01T12:58:58;3.20;92.00
4739;DHT22;2383;48.632;10.156;2023-02-01T13:07:36;2.80;92.10
4739;DHT22;2383;48.632;10.156;2023-02-01T13:11:44;2.50;92.20
4739;DHT22;2383;48.632;10.156;2023-02-01T13:20:50;2.30;91.90
4739;DHT22;2383;48.632;10.156;2023-02-01T13:29:24;3.00;92.40
4739;DHT22;2383;48.632;10.156;2023-02-01T13:42:57;3.10;91.60
4739;DHT22;2383;48.632;10.156;2023-02-01T13:47:03;3.00;92.30
4739;DHT22;2383;48.632;10.156;2023-02-01T13:51:06;3.30;92.20
4739;DHT22;2383;48.632;10.156;2023-02-01T14:03:46;3.20;92.10
4739;DHT22;2383;48.632;10.156;2023-02-01T14:12:44;2.90;92.30
4739;DHT22;2383;48.632;10.156;2023-02-01T14:25:24;3.60;92.10
4739;DHT22;2383;48.632;10.156;2023-02-01T14:33:32;3.40;92.20
4739;DHT22;2383;48.632;10.156;2023-02-01T14:37:37;3.30;92.50
4739;DHT22;2383;48.632;10.156;2023-02-01T14:41:40;3.30;92.70
4739;DHT22;2383;48.632;10.156;2023-02-01T14:45:48;3.40;92.50
4739;DHT22;2383;48.632;10.156;2023-02-01T14:53:58;3.10;92.60
4739;DHT22;2383;48.632;10.156;2023-02-01T14:58:02;3.40;92.30
4739;DHT22;2383;48.632;10.156;2023-02-01T15:02:20;3.60;92.00
4739;DHT22;2383;48.632;10.156;2023-02-01T15:06:55;3.90;91.90
4739;DHT22;2383;48.632;10.156;2023-02-01T15:11:02;3.70;91.50
4739;DHT22;2383;48.632;10.156;2023-02-01T15:15:20;2.80;92.40
4739;DHT22;2383;48.632;10.156;2023-02-01T15:19:27;3.20;92.40
4739;DHT22;2383;48.632;10.156;2023-02-01T15:23:29;2.80;92.80
4739;DHT22;2383;48.632;10.156;2023-02-01T15:27:32;2.40;93.10
4739;DHT22;2383;48.632;10.156;2023-02-01T15:31:37;2.60;92.80
4739;DHT22;2383;48.632;10.156;2023-02-01T15:35:43;2.90;92.50
4739;DHT22;2383;48.632;10.156;2023-02-01T15:44:28;2.60;93.00
4739;DHT22;2383;48.632;10.156;2023-02-01T15:48:45;3.00;92.60
4739;DHT22;2383;48.632;10.156;2023-02-01T15:52:49;3.30;92.00
4739;DHT22;2383;48.632;10.156;2023-02-01T15:56:55;3.20;92.60
4739;DHT22;2383;48.632;10.156;2023-02-01T16:01:01;2.70;92.80
4739;DHT22;2383;48.632;10.156;2023-02-01T16:05:05;2.60;93.10
4739;DHT22;2383;48.632;10.156;2023-02-01T16:09:12;2.60;93.30
4739;DHT22;2383;48.632;10.156;2023-02-01T16:13:16;2.50;93.70
4739;DHT22;2383;48.632;10.156;2023-02-01T16:17:18;2.90;93.50
4739;DHT22;2383;48.632;10.156;2023-02-01T16:21:20;2.80;93.50
4739;DHT22;2383;48.632;10.156;2023-02-01T16:25:22;2.60;93.80
4739;DHT22;2383;48.632;10.156;2023-02-01T16:29:25;2.20;94.00
4739;DHT22;2383;48.632;10.156;2023-02-01T16:33:27;2.30;94.00
4739;DHT22;2383;48.632;10.156;2023-02-01T16:37:29;2.40;94.00
4739;DHT22;2383;48.632;10.156;2023-02-01T16:41:33;2.40;93.90
4739;DHT22;2383;48.632;10.156;2023-02-01T16:45:36;2.70;94.00
4739;DHT22;2383;48.632;10.156;2023-02-01T16:49:41;2.60;94.30
4739;DHT22;2383;48.632;10.156;2023-02-01T16:53:44;2.00;94.40
4739;DHT22;2383;48.632;10.156;2023-02-01T16:57:55;2.30;94.30
4739;DHT22;2383;48.632;10.156;2023-02-01T17:01:57;2.80;93.90
4739;DHT22;2383;48.632;10.156;2023-02-01T17:05:59;3.40;93.10
4739;DHT22;2383;48.632;10.156;2023-02-01T17:10:02;2.80;93.40
4739;DHT22;2383;48.632;10.156;2023-02-01T17:14:14;2.00;93.60
4739;DHT22;2383;48.632;10.156;2023-02-01T17:18:17;2.70;93.80
4739;DHT22;2383;48.632;10.156;2023-02-01T17:22:20;2.80;93.20
4739;DHT22;2383;48.632;10.156;2023-02-01T17:26:22;2.70;93.20
4739;DHT22;2383;48.632;10.156;2023-02-01T17:30:24;3.30;93.20
4739;DHT22;2383;48.632;10.156;2023-02-01T17:34:26;3.20;92.90
4739;DHT22;2383;48.632;10.156;2023-02-01T17:38:28;3.00;93.20
4739;DHT22;2383;48.632;10.156;2023-02-01T17:42:30;2.70;93.20
4739;DHT22;2383;48.632;10.156;2023-02-01T17:46:32;2.80;93.10
4739;DHT22;2383;48.632;10.156;2023-02-01T17:50:36;2.50;93.20
4739;DHT22;2383;48.632;10.156;2023-02-01T17:54:38;2.50;93.20
4739;DHT22;2383;48.632;10.156;2023-02-01T17:58:41;2.40;93.00
4739;DHT22;2383;48.632;10.156;2023-02-01T18:02:43;2.50;93.00
4739;DHT22;2383;48.632;10.156;2023-02-01T18:06:45;2.80;92.70
4739;DHT22;2383;48.632;10.156;2023-02-01T18:10:49;2.70;92.70
4739;DHT22;2383;48.632;10.156;2023-02-01T18:14:51;2.60;92.80
4739;DHT22;2383;48.632;10.156;2023-02-01T18:18:54;3.20;92.60
4739;DHT22;2383;48.632;10.156;2023-02-01T18:23:02;2.20;92.80
4739;DHT22;2383;48.632;10.156;2023-02-01T18:27:04;2.40;93.20
4739;DHT22;2383;48.632;10.156;2023-02-01T18:31:06;2.00;93.20
4739;DHT22;2383;48.632;10.156;2023-02-01T18:35:20;2.70;93.00
4739;DHT22;2383;48.632;10.156;2023-02-01T18:39:22;2.40;92.90
4739;DHT22;2383;48.632;10.156;2023-02-01T18:43:24;2.50;92.90
4739;DHT22;2383;48.632;10.156;2023-02-01T18:47:27;2.80;92.70
4739;DHT22;2383;48.632;10.156;2023-02-01T18:51:29;3.00;92.70
4739;DHT22;2383;48.632;10.156;2023-02-01T18:55:31;2.60;93.20
4739;DHT22;2383;48.632;10.156;2023-02-01T18:59:33;2.60;92.90
4739;DHT22;2383;48.632;10.156;2023-02-01T19:03:36;2.20;93.20
4739;DHT22;2383;48.632;10.156;2023-02-01T19:07:44;2.30;93.10
4739;DHT22;2383;48.632;10.156;2023-02-01T19:11:46;2.20;93.10
4739;DHT22;2383;48.632;10.156;2023-02-01T19:15:48;2.40;93.30
4739;DHT22;2383;48.632;10.156;2023-02-01T19:19:50;1.80;93.40
4739;DHT22;2383;48.632;10.156;2023-02-01T19:23:52;2.00;93.90
4739;DHT22;2383;48.632;10.156;2023-02-01T19:27:55;1.50;94.10
4739;DHT22;2383;48.632;10.156;2023-02-01T19:31:57;1.90;94.10
4739;DHT22;2383;48.632;10.156;2023-02-01T19:36:00;1.60;94.20
4739;DHT22;2383;48.632;10.156;2023-02-01T19:40:11;1.50;94.30
4739;DHT22;2383;48.632;10.156;2023-02-01T19:44:13;2.20;94.10
4739;DHT22;2383;48.632;10.156;2023-02-01T19:48:15;1.90;93.70
4739;DHT22;2383;48.632;10.156;2023-02-01T19:52:19;1.50;93.80
4739;DHT22;2383;48.632;10.156;2023-02-01T19:56:21;2.10;94.30
4739;DHT22;2383;48.632;10.156;2023-02-01T20:00:23;2.00;94.10
4739;DHT22;2383;48.632;10.156;2023-02-01T20:04:25;2.60;94.20
4739;DHT22;2383;48.632;10.156;2023-02-01T20:08:27;1.90;94.10
4739;DHT22;2383;48.632;10.156;2023-02-01T20:12:29;2.10;93.60
4739;DHT22;2383;48.632;10.156;2023-02-01T20:16:31;2.20;93.80
4739;DHT22;2383;48.632;10.156;2023-02-01T20:20:34;2.30;93.80
4739;DHT22;2383;48.632;10.156;2023-02-01T20:24:36;2.40;93.60
4739;DHT22;2383;48.632;10.156;2023-02-01T20:28:40;2.40;93.40
4739;DHT22;2383;48.632;10.156;2023-02-01T20:32:42;2.40;93.40
4739;DHT22;2383;48.632;10.156;2023-02-01T20:36:44;2.90;93.70
4739;DHT22;2383;48.632;10.156;2023-02-01T20:40:46;3.20;93.30
4739;DHT22;2383;48.632;10.156;2023-02-01T20:44:48;3.10;92.70
4739;DHT22;2383;48.632;10.156;2023-02-01T20:48:50;2.60;93.50
4739;DHT22;2383;48.632;10.156;2023-02-01T20:52:52;2.80;93.90
4739;DHT22;2383;48.632;10.156;2023-02-01T20:56:54;2.50;93.70
4739;DHT22;2383;48.632;10.156;2023-02-01T21:00:56;3.00;93.40
4739;DHT22;2383;48.632;10.156;2023-02-01T21:04:58;2.20;93.30
4739;DHT22;2383;48.632;10.156;2023-02-01T21:09:00;2.00;94.40
4739;DHT22;2383;48.632;10.156;2023-02-01T21:13:02;1.80;94.30
4739;DHT22;2383;48.632;10.156;2023-02-01T21:17:06;2.00;94.20
4739;DHT22;2383;48.632;10.156;2023-02-01T21:21:10;2.20;93.70
4739;DHT22;2383;48.632;10.156;2023-02-01T21:25:13;1.30;95.00
4739;DHT22;2383;48.632;10.156;2023-02-01T21:29:15;1.70;95.00
4739;DHT22;2383;48.632;10.156;2023-02-01T21:33:17;2.20;94.60
4739;DHT22;2383;48.632;10.156;2023-02-01T21:37:19;2.00;94.80
4739;DHT22;2383;48.632;10.156;2023-02-01T21:41:26;2.10;95.00
4739;DHT22;2383;48.632;10.156;2023-02-01T21:45:46;1.60;95.50
4739;DHT22;2383;48.632;10.156;2023-02-01T21:49:52;2.00;95.20
4739;DHT22;2383;48.632;10.156;2023-02-01T21:53:55;2.40;95.00
4739;DHT22;2383;48.632;10.156;2023-02-01T21:57:56;2.50;95.00
4739;DHT22;2383;48.632;10.156;2023-02-01T22:01:58;2.00;95.90
4739;DHT22;2383;48.632;10.156;2023-02-01T22:06:00;2.50;96.50
4739;DHT22;2383;48.632;10.156;2023-02-01T22:10:03;2.00;96.70
4739;DHT22;2383;48.632;10.156;2023-02-01T22:14:05;1.80;97.00
4739;DHT22;2383;48.632;10.156;2023-02-01T22:18:07;2.20;97.50
4739;DHT22;2383;48.632;10.156;2023-02-01T22:22:09;2.20;97.30
4739;DHT22;2383;48.632;10.156;2023-02-01T22:26:13;1.90;97.00
4739;DHT22;2383;48.632;10.156;2023-02-01T22:30:15;2.20;97.50
4739;DHT22;2383;48.632;10.156;2023-02-01T22:34:17;2.40;97.10
4739;DHT22;2383;48.632;10.156;2023-02-01T22:38:19;2.40;96.70
4739;DHT22;2383;48.632;10.156;2023-02-01T22:42:21;1.90;97.30
4739;DHT22;2383;48.632;10.156;2023-02-01T22:46:23;2.30;97.40
4739;DHT22;2383;48.632;10.156;2023-02-01T22:50:28;2.40;97.20
4739;DHT22;2383;48.632;10.156;2023-02-01T22:54:30;2.20;97.70
4739;DHT22;2383;48.632;10.156;2023-02-01T22:58:33;2.30;97.30
4739;DHT22;2383;48.632;10.156;2023-02-01T23:02:41;2.50;97.10
4739;DHT22;2383;48.632;10.156;2023-02-01T23:06:43;2.00;97.00
4739;DHT22;2383;48.632;10.156;2023-02-01T23:10:45;2.20;97.60
4739;DHT22;2383;48.632;10.156;2023-02-01T23:14:47;2.60;97.10
4739;DHT22;2383;48.632;10.156;2023-02-01T23:19:07;2.80;96.60
4739;DHT22;2383;48.632;10.156;2023-02-01T23:23:09;2.90;96.20
4739;DHT22;2383;48.632;10.156;2023-02-01T23:27:11;2.50;97.10
4739;DHT22;2383;48.632;10.156;2023-02-01T23:31:13;2.40;97.10
4739;DHT22;2383;48.632;10.156;2023-02-01T23:35:15;2.50;97.60
4739;DHT22;2383;48.632;10.156;2023-02-01T23:39:17;2.80;97.00
4739;DHT22;2383;48.632;10.156;2023-02-01T23:43:19;2.80;97.20
4739;DHT22;2383;48.632;10.156;2023-02-01T23:47:39;2.70;97.40
4739;DHT22;2383;48.632;10.156;2023-02-01T23:51:42;2.10;97.90
4739;DHT22;2383;48.632;10.156;2023-02-01T23:55:44;2.40;97.70
4739;DHT22;2383;48.632;10.156;2023-02-01T23:59:46;2.10;97.80
